Time;durP1;ratioP1;P1;durP2;ratioP2;P2;SDS_P1;SDS_P2;PMS_P1;PMS_P2;Temp;Humidity;BMP_temperature;BMP_pressure;BME280_temperature;BME280_humidity;BME280_pressure;Samples;Min_cycle;Max_cycle;Signal;HPM_P1;HPM_P2
2024/04/08 00:00:25;;;;;;;3.25;1.50;;;;;;;;;;5027519;28;20411;-60
2024/04/08 00:02:51;;;;;;;3.80;1.23;;;;;;;;;;5034830;28;20148;-61
2024/04/08 00:05:17;;;;;;;3.33;1.25;;;;;;;;;;5040324;28;20041;-60
2024/04/08 00:07:42;;;;;;;1.88;1.00;;;;;;;;;;5040455;28;20025;-61
2024/04/08 00:10:07;;;;;;;1.95;1.10;;;;;;;;;;5031489;28;20034;-59
2024/04/08 00:12:33;;;;;;;2.95;1.30;;;;;;;;;;5041458;28;20025;-60
2024/04/08 00:14:58;;;;;;;3.75;1.55;;;;;;;;;;5043581;28;20132;-60
2024/04/08 00:17:23;;;;;;;2.70;1.10;;;;;;;;;;5046286;28;20392;-59
2024/04/08 00:19:48;;;;;;;3.05;1.15;;;;;;;;;;5048141;28;20033;-61
2024/04/08 00:22:14;;;;;;;2.47;1.40;;;;;;;;;;5036119;28;20030;-60
2024/04/08 00:24:39;;;;;;;2.70;1.30;;;;;;;;;;5029098;28;20193;-59
2024/04/08 00:27:05;;;;;;;2.35;1.23;;;;;;;;;;5034649;28;20474;-60
2024/04/08 00:29:30;;;;;;;2.28;1.50;;;;;;;;;;5032982;28;20095;-61
2024/04/08 00:31:55;;;;;;;2.28;1.42;;;;;;;;;;5037916;28;20518;-59
2024/04/08 00:34:21;;;;;;;3.10;1.42;;;;;;;;;;5012820;28;20519;-62
2024/04/08 00:36:46;;;;;;;2.15;1.23;;;;;;;;;;5033706;28;20037;-59
2024/04/08 00:39:11;;;;;;;4.13;1.33;;;;;;;;;;5029061;28;20034;-61
2024/04/08 00:41:37;;;;;;;2.20;1.20;;;;;;;;;;5032809;28;20040;-63
2024/04/08 00:44:02;;;;;;;2.38;1.30;;;;;;;;;;5042414;28;20653;-62
2024/04/08 00:46:27;;;;;;;2.55;1.40;;;;;;;;;;5044356;28;20032;-60
2024/04/08 00:48:53;;;;;;;4.18;1.30;;;;;;;;;;5012356;28;20124;-62
2024/04/08 00:51:18;;;;;;;3.17;1.38;;;;;;;;;;5010649;28;20034;-63
2024/04/08 00:53:43;;;;;;;1.85;1.10;;;;;;;;;;5040003;28;20813;-61
2024/04/08 00:56:09;;;;;;;3.22;1.30;;;;;;;;;;5028427;28;20045;-60
2024/04/08 00:58:34;;;;;;;2.35;1.10;;;;;;;;;;5027490;28;20510;-59
2024/04/08 01:00:59;;;;;;;2.28;1.33;;;;;;;;;;5016875;28;20072;-60
2024/04/08 01:03:25;;;;;;;2.60;1.42;;;;;;;;;;5023867;28;20041;-60
2024/04/08 01:05:50;;;;;;;2.63;1.35;;;;;;;;;;5012618;28;20060;-59
2024/04/08 01:08:16;;;;;;;2.20;1.15;;;;;;;;;;5036822;28;20029;-60
2024/04/08 01:10:41;;;;;;;3.08;1.38;;;;;;;;;;5025738;28;20034;-59
2024/04/08 01:13:06;;;;;;;2.95;1.40;;;;;;;;;;5030237;28;20037;-59
2024/04/08 01:15:32;;;;;;;2.33;1.08;;;;;;;;;;5045697;28;20518;-60
2024/04/08 01:17:57;;;;;;;3.00;1.30;;;;;;;;;;5013856;28;20033;-59
2024/04/08 01:20:22;;;;;;;2.53;1.38;;;;;;;;;;5027518;28;20139;-60
2024/04/08 01:22:48;;;;;;;2.22;1.25;;;;;;;;;;5033633;28;20499;-59
2024/04/08 01:25:13;;;;;;;3.80;1.25;;;;;;;;;;5031278;28;20140;-59
2024/04/08 01:27:38;;;;;;;2.38;1.27;;;;;;;;;;5036514;28;20866;-60
2024/04/08 01:30:04;;;;;;;3.28;1.35;;;;;;;;;;5036846;28;20041;-60
2024/04/08 01:32:29;;;;;;;1.80;1.10;;;;;;;;;;5033802;28;20029;-59
2024/04/08 01:34:54;;;;;;;3.35;1.40;;;;;;;;;;5039542;28;20044;-60
2024/04/08 01:37:20;;;;;;;4.22;1.55;;;;;;;;;;5041029;28;20041;-60
2024/04/08 01:39:45;;;;;;;2.33;1.38;;;;;;;;;;5045094;28;20116;-60
2024/04/08 01:42:10;;;;;;;2.78;1.33;;;;;;;;;;5037047;28;22783;-60
2024/04/08 01:44:36;;;;;;;2.53;1.50;;;;;;;;;;5040669;28;20029;-60
2024/04/08 01:47:01;;;;;;;3.97;1.48;;;;;;;;;;5044879;28;20052;-60
2024/04/08 01:49:27;;;;;;;2.03;1.38;;;;;;;;;;5036718;28;20034;-60
2024/04/08 01:51:53;;;;;;;2.28;1.38;;;;;;;;;;5043609;28;20043;-60
2024/04/08 01:54:19;;;;;;;3.45;1.40;;;;;;;;;;5032636;28;20830;-60
2024/04/08 01:56:45;;;;;;;2.13;1.30;;;;;;;;;;5044461;28;20087;-61
2024/04/08 01:59:10;;;;;;;3.10;1.15;;;;;;;;;;5029319;28;20167;-59
2024/04/08 02:01:35;;;;;;;2.92;1.55;;;;;;;;;;5033875;28;20096;-60
2024/04/08 02:04:01;;;;;;;2.55;1.52;;;;;;;;;;5029961;28;20095;-59
2024/04/08 02:06:26;;;;;;;2.72;1.20;;;;;;;;;;5042151;28;20041;-59
2024/04/08 02:08:51;;;;;;;2.85;1.35;;;;;;;;;;5033570;28;20033;-60
2024/04/08 02:11:16;;;;;;;2.63;1.48;;;;;;;;;;5029427;28;20333;-59
2024/04/08 02:13:44;;;;;;;2.45;1.10;;;;;;;;;;5043773;28;20119;-60
2024/04/08 02:16:10;;;;;;;2.80;1.23;;;;;;;;;;4996700;28;20047;-58
2024/04/08 02:18:35;;;;;;;2.92;1.40;;;;;;;;;;5048931;28;20753;-58
2024/04/08 02:21:00;;;;;;;2.35;1.33;;;;;;;;;;5045325;28;20443;-59
2024/04/08 02:23:26;;;;;;;2.55;1.42;;;;;;;;;;5029484;28;20029;-58
2024/04/08 02:25:51;;;;;;;2.47;1.35;;;;;;;;;;5028830;28;20120;-59
2024/04/08 02:28:16;;;;;;;2.75;1.45;;;;;;;;;;5034587;28;20029;-59
2024/04/08 02:30:42;;;;;;;3.00;1.13;;;;;;;;;;5026375;28;20051;-58
2024/04/08 02:33:07;;;;;;;2.17;1.20;;;;;;;;;;5038914;28;20246;-60
2024/04/08 02:35:33;;;;;;;3.17;1.70;;;;;;;;;;5034449;28;20526;-60
2024/04/08 02:37:59;;;;;;;2.65;1.30;;;;;;;;;;5028350;28;20072;-60
2024/04/08 02:40:24;;;;;;;2.42;1.40;;;;;;;;;;5028728;28;20522;-60
2024/04/08 02:42:49;;;;;;;3.13;1.40;;;;;;;;;;5028080;28;20037;-60
2024/04/08 02:45:15;;;;;;;2.75;1.40;;;;;;;;;;5028155;28;20084;-61
2024/04/08 02:47:40;;;;;;;2.60;1.50;;;;;;;;;;5030984;28;20030;-60
2024/04/08 02:50:05;;;;;;;3.83;1.40;;;;;;;;;;5029944;28;20038;-60
2024/04/08 02:52:30;;;;;;;2.38;1.38;;;;;;;;;;5037750;28;20144;-60
2024/04/08 02:54:56;;;;;;;3.28;1.50;;;;;;;;;;5028171;28;20026;-60
2024/04/08 02:57:21;;;;;;;2.70;1.40;;;;;;;;;;5028177;28;20087;-60
2024/04/08 02:59:47;;;;;;;3.10;1.38;;;;;;;;;;5028726;28;20083;-61
2024/04/08 03:02:12;;;;;;;2.30;1.30;;;;;;;;;;5033116;28;20131;-60
2024/04/08 03:04:38;;;;;;;2.30;1.45;;;;;;;;;;5041262;28;20089;-61
2024/04/08 03:07:03;;;;;;;2.67;1.23;;;;;;;;;;5027795;28;20095;-61
2024/04/08 03:09:28;;;;;;;3.30;1.40;;;;;;;;;;5030903;28;20574;-60
2024/04/08 03:11:54;;;;;;;2.15;1.40;;;;;;;;;;5033230;28;20431;-60
2024/04/08 03:14:19;;;;;;;1.92;1.08;;;;;;;;;;5029178;28;20120;-60
2024/04/08 03:16:45;;;;;;;2.78;1.23;;;;;;;;;;5038515;28;20049;-60
2024/04/08 03:19:10;;;;;;;1.92;1.23;;;;;;;;;;5048917;28;20091;-60
2024/04/08 03:21:35;;;;;;;3.33;1.67;;;;;;;;;;5039914;28;20038;-60
2024/04/08 03:24:02;;;;;;;3.00;1.40;;;;;;;;;;5045564;28;20044;-60
2024/04/08 03:26:27;;;;;;;2.42;1.30;;;;;;;;;;5037819;28;20033;-61
2024/04/08 03:28:52;;;;;;;3.08;1.40;;;;;;;;;;5028612;28;20575;-60
2024/04/08 03:31:18;;;;;;;2.83;1.30;;;;;;;;;;5025327;28;20037;-60
2024/04/08 03:33:43;;;;;;;2.17;1.20;;;;;;;;;;5041046;28;20502;-60
2024/04/08 03:36:09;;;;;;;3.28;1.50;;;;;;;;;;5037232;28;20128;-59
2024/04/08 03:38:34;;;;;;;3.40;1.70;;;;;;;;;;5031070;28;20106;-59
2024/04/08 03:41:00;;;;;;;3.00;1.33;;;;;;;;;;5032445;28;20120;-59
2024/04/08 03:43:25;;;;;;;3.58;1.50;;;;;;;;;;5043217;28;20106;-59
2024/04/08 03:45:51;;;;;;;3.00;1.38;;;;;;;;;;5040659;28;20040;-59
2024/04/08 03:48:16;;;;;;;2.47;1.27;;;;;;;;;;5027791;28;20029;-59
2024/04/08 03:50:42;;;;;;;2.47;1.50;;;;;;;;;;5033457;28;20467;-59
2024/04/08 03:53:07;;;;;;;3.40;1.48;;;;;;;;;;5033377;28;20117;-59
2024/04/08 03:55:32;;;;;;;3.03;1.50;;;;;;;;;;5027359;28;20052;-59
2024/04/08 03:57:57;;;;;;;2.92;1.50;;;;;;;;;;5025355;28;20041;-60
2024/04/08 04:00:23;;;;;;;3.45;1.67;;;;;;;;;;5026615;28;20029;-59
2024/04/08 04:02:48;;;;;;;3.17;1.40;;;;;;;;;;5009538;28;20080;-60
2024/04/08 04:05:14;;;;;;;2.85;1.33;;;;;;;;;;5026935;28;20026;-60
2024/04/08 04:07:39;;;;;;;3.50;1.30;;;;;;;;;;5032114;28;20037;-59
2024/04/08 04:10:05;;;;;;;3.80;1.58;;;;;;;;;;5027875;28;20159;-60
2024/04/08 04:12:33;;;;;;;2.92;1.90;;;;;;;;;;5040648;28;20506;-59
2024/04/08 04:15:00;;;;;;;3.30;1.30;;;;;;;;;;5040152;28;20091;-60
2024/04/08 04:17:25;;;;;;;2.88;1.30;;;;;;;;;;5035641;28;20564;-60
2024/04/08 04:19:51;;;;;;;2.88;1.63;;;;;;;;;;5012870;28;20034;-59
2024/04/08 04:22:17;;;;;;;2.15;1.30;;;;;;;;;;5026287;28;20160;-60
2024/04/08 04:24:42;;;;;;;2.83;1.40;;;;;;;;;;5009886;28;20677;-60
2024/04/08 04:27:07;;;;;;;2.63;1.58;;;;;;;;;;5032159;28;20034;-59
2024/04/08 04:29:33;;;;;;;2.65;1.60;;;;;;;;;;5030264;28;20108;-59
2024/04/08 04:31:58;;;;;;;3.28;1.60;;;;;;;;;;5026394;28;20045;-59
2024/04/08 04:34:23;;;;;;;3.00;1.50;;;;;;;;;;5028445;28;20557;-58
2024/04/08 04:36:49;;;;;;;3.90;1.27;;;;;;;;;;5029293;28;20047;-57
2024/04/08 04:40:44;;;;;;;4.15;1.50;;;;;;;;;;5418432;25;20351;-59
2024/04/08 04:43:10;;;;;;;3.70;1.58;;;;;;;;;;5370630;26;20083;-57
2024/04/08 04:45:35;;;;;;;3.33;1.38;;;;;;;;;;5401765;26;20007;-58
2024/04/08 04:48:00;;;;;;;4.70;1.50;;;;;;;;;;5405811;26;20434;-57
2024/04/08 04:50:25;;;;;;;3.22;1.40;;;;;;;;;;5404369;26;20025;-56
2024/04/08 04:52:51;;;;;;;2.50;1.45;;;;;;;;;;5406350;26;20011;-59
2024/04/08 04:55:16;;;;;;;3.53;1.67;;;;;;;;;;5406036;26;20015;-57
2024/04/08 04:57:41;;;;;;;3.50;1.52;;;;;;;;;;5405764;26;19991;-56
2024/04/08 05:00:09;;;;;;;4.53;1.88;;;;;;;;;;5403948;26;20118;-56
2024/04/08 05:02:34;;;;;;;4.60;2.05;;;;;;;;;;5405808;26;20007;-58
2024/04/08 05:05:00;;;;;;;2.63;1.23;;;;;;;;;;5413447;26;20003;-56
2024/04/08 05:07:25;;;;;;;2.95;1.40;;;;;;;;;;5402456;26;20003;-57
2024/04/08 05:09:50;;;;;;;2.95;1.73;;;;;;;;;;5403896;26;20011;-56
2024/04/08 05:12:16;;;;;;;3.83;1.70;;;;;;;;;;5405222;26;20007;-56
2024/04/08 05:14:41;;;;;;;9.77;1.77;;;;;;;;;;5405854;26;20075;-58
2024/04/08 05:17:06;;;;;;;6.90;2.40;;;;;;;;;;5403839;26;20325;-57
2024/04/08 05:19:31;;;;;;;9.88;2.33;;;;;;;;;;5404962;26;20007;-57
2024/04/08 05:21:58;;;;;;;7.80;2.03;;;;;;;;;;5403274;26;20054;-58
2024/04/08 05:24:23;;;;;;;6.68;1.60;;;;;;;;;;5405634;26;20003;-57
2024/04/08 05:26:48;;;;;;;5.65;1.98;;;;;;;;;;5405237;25;20574;-56
2024/04/08 05:29:14;;;;;;;5.80;2.00;;;;;;;;;;5399335;26;20542;-58
2024/04/08 05:31:39;;;;;;;3.05;1.50;;;;;;;;;;5396926;26;20007;-57
2024/04/08 05:34:04;;;;;;;6.70;2.15;;;;;;;;;;5403319;26;20006;-58
2024/04/08 05:36:30;;;;;;;9.50;2.25;;;;;;;;;;5402859;26;20395;-59
2024/04/08 05:38:56;;;;;;;8.02;2.42;;;;;;;;;;5406547;25;20010;-59
2024/04/08 05:41:21;;;;;;;6.32;2.15;;;;;;;;;;5403839;26;19996;-58
2024/04/08 05:43:46;;;;;;;10.13;2.35;;;;;;;;;;5404750;26;20025;-58
2024/04/08 05:46:12;;;;;;;7.65;2.20;;;;;;;;;;5404952;26;20011;-58
2024/04/08 05:48:37;;;;;;;7.03;2.20;;;;;;;;;;5404054;26;19996;-59
2024/04/08 05:51:03;;;;;;;7.57;2.30;;;;;;;;;;5394122;26;20334;-59
2024/04/08 05:53:29;;;;;;;5.28;2.20;;;;;;;;;;5385572;26;20430;-58
2024/04/08 05:55:54;;;;;;;6.63;2.53;;;;;;;;;;5391011;26;20013;-58
2024/04/08 05:58:19;;;;;;;7.55;2.28;;;;;;;;;;5389064;26;20034;-58
2024/04/08 06:00:45;;;;;;;6.95;2.20;;;;;;;;;;5386932;26;20007;-59
2024/04/08 06:03:10;;;;;;;9.45;2.30;;;;;;;;;;5388477;26;20008;-59
2024/04/08 06:05:38;;;;;;;8.13;2.60;;;;;;;;;;5388180;26;20053;-58
2024/04/08 06:08:03;;;;;;;9.50;2.65;;;;;;;;;;5382217;26;19997;-58
2024/04/08 06:10:34;;;;;;;11.00;2.58;;;;;;;;;;5387952;26;20000;-61
2024/04/08 06:12:59;;;;;;;6.82;2.22;;;;;;;;;;5387393;26;20043;-60
2024/04/08 06:15:25;;;;;;;5.90;2.30;;;;;;;;;;5388662;26;20311;-59
2024/04/08 06:17:50;;;;;;;6.43;2.30;;;;;;;;;;5386374;26;20015;-59
2024/04/08 06:20:15;;;;;;;7.60;2.53;;;;;;;;;;5387307;26;20003;-61
2024/04/08 06:22:41;;;;;;;5.65;2.25;;;;;;;;;;5390083;26;20399;-58
2024/04/08 06:25:06;;;;;;;5.93;2.30;;;;;;;;;;5388258;26;20314;-59
2024/04/08 06:27:32;;;;;;;6.57;2.28;;;;;;;;;;5387561;26;19999;-62
2024/04/08 06:29:57;;;;;;;8.07;2.35;;;;;;;;;;5389807;26;20035;-59
2024/04/08 06:32:22;;;;;;;5.95;2.20;;;;;;;;;;5384609;26;20011;-61
2024/04/08 06:34:48;;;;;;;8.75;2.95;;;;;;;;;;5390951;26;19997;-58
2024/04/08 06:37:14;;;;;;;7.35;2.17;;;;;;;;;;5386626;26;20008;-59
2024/04/08 06:39:39;;;;;;;5.93;1.80;;;;;;;;;;5386592;26;20382;-58
2024/04/08 06:42:04;;;;;;;8.32;2.80;;;;;;;;;;5388318;26;20000;-60
2024/04/08 06:44:30;;;;;;;9.13;2.63;;;;;;;;;;5391698;26;20426;-58
2024/04/08 06:46:55;;;;;;;6.60;2.35;;;;;;;;;;5384563;26;20640;-59
2024/04/08 06:49:20;;;;;;;9.98;2.85;;;;;;;;;;5386452;26;20004;-60
2024/04/08 06:51:46;;;;;;;7.00;2.33;;;;;;;;;;5386619;26;20295;-61
2024/04/08 06:54:11;;;;;;;7.05;2.35;;;;;;;;;;5386077;26;19997;-59
2024/04/08 06:56:38;;;;;;;6.47;2.30;;;;;;;;;;5382424;26;20121;-60
2024/04/08 06:59:03;;;;;;;6.65;2.40;;;;;;;;;;5387580;26;20014;-59
2024/04/08 07:01:30;;;;;;;8.52;2.33;;;;;;;;;;5388683;26;19996;-61
2024/04/08 07:03:55;;;;;;;8.20;2.60;;;;;;;;;;5385331;26;19999;-59
2024/04/08 07:06:20;;;;;;;7.82;2.35;;;;;;;;;;5389812;26;20000;-58
2024/04/08 07:08:46;;;;;;;10.02;2.50;;;;;;;;;;5391936;26;20518;-58
2024/04/08 07:11:11;;;;;;;8.38;2.20;;;;;;;;;;5388499;26;20020;-58
2024/04/08 07:13:38;;;;;;;6.82;1.95;;;;;;;;;;5388684;26;20003;-59
2024/04/08 07:16:03;;;;;;;7.22;2.47;;;;;;;;;;5388424;26;19999;-61
2024/04/08 07:18:29;;;;;;;6.28;2.13;;;;;;;;;;5386897;26;20069;-60
2024/04/08 07:20:54;;;;;;;5.18;2.33;;;;;;;;;;5390109;26;20790;-62
2024/04/08 07:23:19;;;;;;;4.13;2.10;;;;;;;;;;5397105;26;20069;-66
2024/04/08 07:25:45;;;;;;;8.00;2.40;;;;;;;;;;5387767;26;20000;-58
2024/04/08 07:28:11;;;;;;;6.28;2.30;;;;;;;;;;5386935;26;20007;-58
2024/04/08 07:30:36;;;;;;;5.60;2.05;;;;;;;;;;5386980;26;20027;-57
2024/04/08 07:33:02;;;;;;;3.10;1.95;;;;;;;;;;5385553;26;19999;-58
2024/04/08 07:35:27;;;;;;;4.95;2.08;;;;;;;;;;5386429;26;20406;-59
2024/04/08 07:37:52;;;;;;;7.93;2.38;;;;;;;;;;5388939;26;20007;-63
2024/04/08 07:40:17;;;;;;;4.97;1.98;;;;;;;;;;5387020;26;20007;-65
2024/04/08 07:42:43;;;;;;;6.78;1.85;;;;;;;;;;5385172;26;20448;-60
2024/04/08 07:45:08;;;;;;;4.78;1.80;;;;;;;;;;5386064;26;20077;-60
2024/04/08 07:47:34;;;;;;;4.60;2.00;;;;;;;;;;5388328;26;20015;-64
2024/04/08 07:49:59;;;;;;;4.28;1.95;;;;;;;;;;5388100;26;20440;-68
2024/04/08 07:52:26;;;;;;;5.20;1.85;;;;;;;;;;5391515;26;20468;-68
2024/04/08 07:54:52;;;;;;;3.63;1.88;;;;;;;;;;5389862;26;20066;-64
2024/04/08 07:57:17;;;;;;;6.90;1.90;;;;;;;;;;5390650;26;20043;-65
2024/04/08 07:59:43;;;;;;;5.32;1.60;;;;;;;;;;5387570;26;20421;-61
2024/04/08 08:02:08;;;;;;;3.65;1.77;;;;;;;;;;5389586;26;20001;-61
2024/04/08 08:04:33;;;;;;;4.30;1.45;;;;;;;;;;5389364;26;20325;-62
2024/04/08 08:06:59;;;;;;;5.25;1.67;;;;;;;;;;5389831;26;20835;-61
2024/04/08 08:09:24;;;;;;;5.05;1.75;;;;;;;;;;5392401;26;19996;-60
2024/04/08 08:11:49;;;;;;;3.55;1.65;;;;;;;;;;5407481;26;20614;-61
2024/04/08 08:14:14;;;;;;;3.97;1.63;;;;;;;;;;5373225;26;20000;-62
2024/04/08 08:16:41;;;;;;;3.10;1.50;;;;;;;;;;5400052;26;20453;-60
2024/04/08 08:19:07;;;;;;;3.35;1.73;;;;;;;;;;5407947;26;20048;-62
2024/04/08 08:21:32;;;;;;;4.30;1.70;;;;;;;;;;5405898;26;20046;-61
2024/04/08 08:23:57;;;;;;;5.45;1.48;;;;;;;;;;5407541;26;20031;-59
2024/04/08 08:26:23;;;;;;;3.60;1.20;;;;;;;;;;5406920;26;20073;-60
2024/04/08 08:28:48;;;;;;;3.92;1.23;;;;;;;;;;5408371;26;20078;-61
2024/04/08 08:31:13;;;;;;;2.97;1.40;;;;;;;;;;5407131;26;19996;-60
2024/04/08 08:33:39;;;;;;;2.88;1.02;;;;;;;;;;5382083;26;19996;-57
2024/04/08 08:36:04;;;;;;;2.40;1.33;;;;;;;;;;5405342;26;20015;-59
2024/04/08 08:38:30;;;;;;;4.55;1.33;;;;;;;;;;5407424;26;20011;-58
2024/04/08 08:41:06;;;;;;;2.85;1.27;;;;;;;;;;5399520;26;20430;-58
2024/04/08 08:43:31;;;;;;;2.15;1.00;;;;;;;;;;5406276;26;20341;-59
2024/04/08 08:45:57;;;;;;;2.72;1.10;;;;;;;;;;5406555;26;20016;-64
2024/04/08 08:48:22;;;;;;;2.35;1.10;;;;;;;;;;5407114;26;20298;-59
2024/04/08 08:50:48;;;;;;;4.00;1.30;;;;;;;;;;5404418;26;20007;-59
2024/04/08 08:53:13;;;;;;;2.63;1.10;;;;;;;;;;5402844;26;20106;-62
2024/04/08 08:55:38;;;;;;;3.15;0.95;;;;;;;;;;5403247;26;20000;-61
2024/04/08 08:58:05;;;;;;;2.80;1.10;;;;;;;;;;5407948;26;19999;-58
2024/04/08 09:00:30;;;;;;;5.97;1.30;;;;;;;;;;5404015;26;20003;-58
2024/04/08 09:02:56;;;;;;;2.95;1.20;;;;;;;;;;5406486;26;19999;-59
2024/04/08 09:05:21;;;;;;;3.10;1.05;;;;;;;;;;5408401;26;20003;-59
2024/04/08 09:07:47;;;;;;;3.85;1.13;;;;;;;;;;5405490;26;20011;-58
2024/04/08 09:10:12;;;;;;;3.17;1.00;;;;;;;;;;5403583;26;20007;-58
2024/04/08 09:12:40;;;;;;;2.75;1.00;;;;;;;;;;5404837;26;19999;-58
2024/04/08 09:15:06;;;;;;;2.97;1.10;;;;;;;;;;5404655;26;20141;-59
2024/04/08 09:17:31;;;;;;;2.70;1.00;;;;;;;;;;5403203;26;20058;-59
2024/04/08 09:19:57;;;;;;;2.70;1.30;;;;;;;;;;5404167;26;20043;-59
2024/04/08 09:22:22;;;;;;;3.42;1.27;;;;;;;;;;5404384;26;20006;-59
2024/04/08 09:24:47;;;;;;;3.17;0.98;;;;;;;;;;5408713;26;20011;-58
2024/04/08 09:27:13;;;;;;;2.50;0.88;;;;;;;;;;5391118;26;20339;-59
2024/04/08 09:29:38;;;;;;;2.65;0.90;;;;;;;;;;5400966;26;20329;-61
2024/04/08 09:32:08;;;;;;;1.98;0.63;;;;;;;;;;5410649;26;20325;-59
2024/04/08 09:34:33;;;;;;;;;;;;;;;;;;5398774;26;20006;-59
2024/04/08 09:36:59;;;;;;;2.70;1.10;;;;;;;;;;5411235;26;19925;-59
2024/04/08 09:39:24;;;;;;;2.92;0.80;;;;;;;;;;5411115;26;20014;-59
2024/04/08 09:41:49;;;;;;;1.67;0.68;;;;;;;;;;5408416;26;20030;-59
2024/04/08 09:44:16;;;;;;;1.80;0.80;;;;;;;;;;5409969;26;20401;-59
2024/04/08 09:46:41;;;;;;;3.65;0.80;;;;;;;;;;5411173;26;20007;-59
2024/04/08 09:49:09;;;;;;;2.53;0.60;;;;;;;;;;5409527;26;20414;-59
2024/04/08 09:51:34;;;;;;;2.40;0.60;;;;;;;;;;5408302;26;20007;-58
2024/04/08 09:54:00;;;;;;;1.25;0.70;;;;;;;;;;5409783;26;20552;-59
2024/04/08 09:56:25;;;;;;;2.88;0.90;;;;;;;;;;5407568;26;20006;-58
2024/04/08 09:58:56;;;;;;;3.58;0.80;;;;;;;;;;5399086;26;20019;-57
2024/04/08 10:01:22;;;;;;;3.17;0.70;;;;;;;;;;5386579;26;20123;-56
2024/04/08 10:03:50;;;;;;;3.58;1.08;;;;;;;;;;5391069;26;20034;-58
2024/04/08 10:06:17;;;;;;;1.92;0.70;;;;;;;;;;5391265;26;20166;-57
2024/04/08 10:08:43;;;;;;;3.92;0.70;;;;;;;;;;5388814;26;19996;-59
2024/04/08 10:11:08;;;;;;;2.03;0.60;;;;;;;;;;5391245;26;20401;-57
2024/04/08 10:13:43;;;;;;;2.22;0.70;;;;;;;;;;5389559;26;20010;-57
2024/04/08 10:16:12;;;;;;;1.38;0.55;;;;;;;;;;5391940;26;20000;-56
2024/04/08 10:18:53;;;;;;;2.83;0.57;;;;;;;;;;5391908;26;19996;-56
2024/04/08 10:21:19;;;;;;;2.97;0.52;;;;;;;;;;5391749;26;20023;-56
2024/04/08 10:23:44;;;;;;;2.20;0.70;;;;;;;;;;5392752;26;20157;-58
2024/04/08 10:26:10;;;;;;;3.05;0.43;;;;;;;;;;5388783;26;20008;-59
2024/04/08 10:28:38;;;;;;;1.20;0.50;;;;;;;;;;5397559;26;20037;-60
2024/04/08 10:31:05;;;;;;;1.40;0.50;;;;;;;;;;5387824;26;20015;-56
2024/04/08 10:33:30;;;;;;;1.45;0.60;;;;;;;;;;5388393;26;19999;-56
2024/04/08 10:35:55;;;;;;;2.63;0.50;;;;;;;;;;5386709;26;20444;-56
2024/04/08 10:38:21;;;;;;;1.92;0.43;;;;;;;;;;5389314;26;20003;-56
2024/04/08 10:40:46;;;;;;;1.23;0.50;;;;;;;;;;5388234;26;20000;-56
2024/04/08 10:43:12;;;;;;;0.80;0.40;;;;;;;;;;5387140;26;20043;-56
2024/04/08 10:45:38;;;;;;;0.82;0.60;;;;;;;;;;5387434;26;20812;-57
2024/04/08 10:48:04;;;;;;;1.80;0.70;;;;;;;;;;5388754;26;20019;-57
2024/04/08 10:50:29;;;;;;;1.38;0.50;;;;;;;;;;5394942;26;20083;-56
2024/04/08 10:52:54;;;;;;;2.85;0.60;;;;;;;;;;5387603;26;20023;-57
2024/04/08 10:55:20;;;;;;;1.25;0.55;;;;;;;;;;5389829;26;19999;-57
2024/04/08 10:57:45;;;;;;;1.45;0.60;;;;;;;;;;5386639;26;20004;-57
2024/04/08 11:00:10;;;;;;;1.35;0.47;;;;;;;;;;5386096;26;20033;-57
2024/04/08 11:02:36;;;;;;;1.90;0.63;;;;;;;;;;5387557;26;20035;-56
2024/04/08 11:05:01;;;;;;;2.80;0.60;;;;;;;;;;5396944;26;20004;-57
2024/04/08 11:07:29;;;;;;;1.58;0.60;;;;;;;;;;5388199;26;20399;-57
2024/04/08 11:09:54;;;;;;;1.35;0.70;;;;;;;;;;5389615;26;22547;-57
2024/04/08 11:12:20;;;;;;;1.33;0.50;;;;;;;;;;5389376;26;20006;-57
2024/04/08 11:14:47;;;;;;;1.85;0.50;;;;;;;;;;5387815;26;20031;-58
2024/04/08 11:17:14;;;;;;;1.50;0.40;;;;;;;;;;5390594;26;20055;-59
2024/04/08 11:19:39;;;;;;;0.73;0.45;;;;;;;;;;5386965;26;21109;-58
2024/04/08 11:22:08;;;;;;;1.30;0.50;;;;;;;;;;5389194;26;20461;-58
2024/04/08 11:24:33;;;;;;;1.73;0.53;;;;;;;;;;5390207;26;19999;-59
2024/04/08 11:27:00;;;;;;;2.20;0.60;;;;;;;;;;5391807;26;20054;-59
2024/04/08 11:29:26;;;;;;;0.88;0.40;;;;;;;;;;5390223;26;20126;-58
2024/04/08 11:31:51;;;;;;;2.42;0.47;;;;;;;;;;5391667;26;20018;-60
2024/04/08 11:34:17;;;;;;;1.42;0.40;;;;;;;;;;5389582;26;19996;-58
2024/04/08 11:36:42;;;;;;;1.20;0.57;;;;;;;;;;5389290;26;22101;-58
2024/04/08 11:39:07;;;;;;;0.90;0.30;;;;;;;;;;5388883;26;20406;-58
2024/04/08 11:41:33;;;;;;;0.90;0.40;;;;;;;;;;5388405;26;19996;-58
2024/04/08 11:43:58;;;;;;;0.80;0.30;;;;;;;;;;5388340;26;20004;-58
2024/04/08 11:46:24;;;;;;;1.60;0.50;;;;;;;;;;5389725;26;20080;-58
2024/04/08 11:48:49;;;;;;;1.20;0.60;;;;;;;;;;5387050;26;22235;-57
2024/04/08 11:51:15;;;;;;;2.33;0.65;;;;;;;;;;5385599;26;20729;-57
2024/04/08 11:53:40;;;;;;;1.17;0.40;;;;;;;;;;5389542;26;20010;-57
2024/04/08 11:56:08;;;;;;;1.30;0.40;;;;;;;;;;5389688;26;20056;-58
2024/04/08 11:58:34;;;;;;;1.45;0.52;;;;;;;;;;5387533;26;20014;-58
2024/04/08 12:01:02;;;;;;;0.95;0.40;;;;;;;;;;5384928;26;20000;-57
2024/04/08 12:03:27;;;;;;;1.83;0.43;;;;;;;;;;5395425;26;20007;-57
2024/04/08 12:05:52;;;;;;;2.22;0.57;;;;;;;;;;5388003;26;20010;-57
2024/04/08 12:08:18;;;;;;;2.53;0.65;;;;;;;;;;5385773;26;20311;-58
2024/04/08 12:10:43;;;;;;;5.00;0.57;;;;;;;;;;5385095;26;20481;-58
2024/04/08 12:13:16;;;;;;;2.72;0.60;;;;;;;;;;5386716;26;20314;-57
2024/04/08 12:15:42;;;;;;;3.10;0.60;;;;;;;;;;5388434;26;20003;-58
2024/04/08 12:18:07;;;;;;;2.17;0.65;;;;;;;;;;5387233;26;20001;-58
2024/04/08 12:20:32;;;;;;;1.08;0.47;;;;;;;;;;5387926;26;20072;-59
2024/04/08 12:22:58;;;;;;;1.42;0.60;;;;;;;;;;5384716;26;20424;-58
2024/04/08 12:25:23;;;;;;;2.10;0.60;;;;;;;;;;5389356;26;20003;-60
2024/04/08 12:27:48;;;;;;;1.75;0.52;;;;;;;;;;5386451;26;20022;-56
2024/04/08 12:30:14;;;;;;;1.27;0.50;;;;;;;;;;5406843;26;20006;-60
2024/04/08 12:32:39;;;;;;;2.58;0.52;;;;;;;;;;5407551;26;20456;-56
2024/04/08 12:35:04;;;;;;;1.83;0.60;;;;;;;;;;5404529;26;20011;-56
2024/04/08 12:37:30;;;;;;;2.13;0.50;;;;;;;;;;5406648;26;20463;-57
2024/04/08 12:39:55;;;;;;;2.38;0.70;;;;;;;;;;5407890;26;20148;-57
2024/04/08 12:42:20;;;;;;;1.42;0.50;;;;;;;;;;5407087;26;20004;-60
2024/04/08 12:44:46;;;;;;;2.15;0.50;;;;;;;;;;5408867;26;20004;-59
2024/04/08 12:47:11;;;;;;;2.10;0.82;;;;;;;;;;5407574;26;20019;-57
2024/04/08 12:49:36;;;;;;;2.13;0.50;;;;;;;;;;5408443;26;20489;-57
2024/04/08 12:52:02;;;;;;;2.13;0.68;;;;;;;;;;5404374;26;20498;-56
2024/04/08 12:54:27;;;;;;;1.48;0.70;;;;;;;;;;5405292;26;20445;-56
2024/04/08 12:56:52;;;;;;;1.75;0.50;;;;;;;;;;5407689;26;20014;-59
2024/04/08 12:59:18;;;;;;;1.05;0.52;;;;;;;;;;5407159;26;19999;-56
2024/04/08 13:01:43;;;;;;;1.48;0.40;;;;;;;;;;5411988;26;20011;-57
2024/04/08 13:04:08;;;;;;;1.10;0.47;;;;;;;;;;5409346;26;20003;-57
2024/04/08 13:06:34;;;;;;;2.35;0.57;;;;;;;;;;5411485;26;20080;-58
2024/04/08 13:08:59;;;;;;;2.08;0.50;;;;;;;;;;5411285;26;20004;-57
2024/04/08 13:11:25;;;;;;;1.67;0.40;;;;;;;;;;5412017;26;20000;-57
2024/04/08 13:13:50;;;;;;;1.60;0.50;;;;;;;;;;5410354;26;20332;-57
2024/04/08 13:16:15;;;;;;;1.30;0.43;;;;;;;;;;5410696;26;20061;-57
2024/04/08 13:18:41;;;;;;;1.50;0.60;;;;;;;;;;5411322;26;20004;-57
2024/04/08 13:21:06;;;;;;;1.23;0.57;;;;;;;;;;5402213;26;20005;-57
2024/04/08 13:23:32;;;;;;;1.40;0.45;;;;;;;;;;5410550;26;19999;-56
2024/04/08 13:25:57;;;;;;;1.08;0.40;;;;;;;;;;5410413;26;20081;-57
2024/04/08 13:28:23;;;;;;;2.17;0.50;;;;;;;;;;5411426;26;19999;-57
2024/04/08 13:30:49;;;;;;;1.00;0.50;;;;;;;;;;5412621;26;19995;-56
2024/04/08 13:33:15;;;;;;;2.03;0.50;;;;;;;;;;5408696;26;20734;-57
2024/04/08 13:35:40;;;;;;;1.75;0.50;;;;;;;;;;5401401;26;20429;-57
2024/04/08 13:38:07;;;;;;;0.90;0.43;;;;;;;;;;5410868;26;20028;-56
2024/04/08 13:40:32;;;;;;;1.08;0.50;;;;;;;;;;5415157;26;19999;-56
2024/04/08 13:42:58;;;;;;;1.05;0.50;;;;;;;;;;5411769;26;20338;-57
2024/04/08 13:45:23;;;;;;;1.27;0.60;;;;;;;;;;5408796;26;20022;-56
2024/04/08 13:47:48;;;;;;;1.63;0.45;;;;;;;;;;5410610;26;20429;-57
2024/04/08 13:50:14;;;;;;;1.30;0.50;;;;;;;;;;5410447;26;20413;-57
2024/04/08 13:52:39;;;;;;;1.65;0.60;;;;;;;;;;5409658;26;19996;-57
2024/04/08 13:55:04;;;;;;;2.10;0.70;;;;;;;;;;5407859;26;20004;-57
2024/04/08 13:57:30;;;;;;;3.25;0.70;;;;;;;;;;5410776;26;20422;-56
2024/04/08 13:59:55;;;;;;;2.83;0.50;;;;;;;;;;5410646;26;19995;-57
2024/04/08 14:02:20;;;;;;;0.90;0.45;;;;;;;;;;5410468;26;19995;-61
2024/04/08 14:04:46;;;;;;;3.10;0.47;;;;;;;;;;5409489;26;20322;-58
2024/04/08 14:07:12;;;;;;;2.83;0.40;;;;;;;;;;5408000;26;19996;-56
2024/04/08 14:09:37;;;;;;;1.83;0.65;;;;;;;;;;5409476;26;20330;-58
2024/04/08 14:12:02;;;;;;;1.33;0.50;;;;;;;;;;5409394;26;20005;-57
2024/04/08 14:14:28;;;;;;;1.88;0.65;;;;;;;;;;5408299;26;20003;-56
2024/04/08 14:16:53;;;;;;;1.45;0.50;;;;;;;;;;5410575;26;20330;-57
2024/04/08 14:19:19;;;;;;;3.00;0.52;;;;;;;;;;5401291;26;20000;-61
2024/04/08 14:21:45;;;;;;;1.35;0.47;;;;;;;;;;5400965;26;20010;-60
2024/04/08 14:24:10;;;;;;;1.08;0.40;;;;;;;;;;5409423;26;20033;-57
2024/04/08 14:26:35;;;;;;;1.77;0.50;;;;;;;;;;5411069;26;19999;-57
2024/04/08 14:29:01;;;;;;;1.50;0.77;;;;;;;;;;5415085;26;19999;-56
2024/04/08 14:31:26;;;;;;;2.13;0.40;;;;;;;;;;5419249;26;20011;-57
2024/04/08 14:33:53;;;;;;;1.50;0.60;;;;;;;;;;5404305;26;20069;-56